<?xml version="1.0" encoding="UTF-8" standalone="no" ?>
<gpx xmlns="http://www.topografix.com/GPX/1/1" xmlns:xsi="http://www.w3.org/2001/XMLSchema-instance" xsi:schemaLocation="http://www.topografix.com/GPX/1/1 http://www.topografix.com/GPX/1/1/gpx.xsd" version="1.1" creator="VisuGPX - https://www.visugpx.com">
  <metadata>
    <name>Course à pied dans l'après-midi</name>
  </metadata>
  <trk>
    <name><![CDATA[Course à pied dans l'après-midi_1]]></name>
    <trkseg>
      <trkpt lat="48.70844" lon="7.16123">
        <ele>324.8</ele>
        <time>2024-01-22T15:33:45Z</time>
      </trkpt>
      <trkpt lat="48.70844" lon="7.16123">
        <ele>324.8</ele>
        <time>2024-01-22T15:33:57Z</time>
      </trkpt>
      <trkpt lat="48.70844" lon="7.16123">
        <ele>324.8</ele>
        <time>2024-01-22T15:34:04Z</time>
      </trkpt>
      <trkpt lat="48.70844" lon="7.16123">
        <ele>324.8</ele>
        <time>2024-01-22T15:34:11Z</time>
      </trkpt>
      <trkpt lat="48.70844" lon="7.16123">
        <ele>324.8</ele>
        <time>2024-01-22T15:34:18Z</time>
      </trkpt>
      <trkpt lat="48.70844" lon="7.16123">
        <ele>324.8</ele>
        <time>2024-01-22T15:34:25Z</time>
      </trkpt>
      <trkpt lat="48.70844" lon="7.16123">
        <ele>324.8</ele>
        <time>2024-01-22T15:34:31Z</time>
      </trkpt>
      <trkpt lat="48.70844" lon="7.16123">
        <ele>324.8</ele>
        <time>2024-01-22T15:34:37Z</time>
      </trkpt>
      <trkpt lat="48.70844" lon="7.16123">
        <ele>324.8</ele>
        <time>2024-01-22T15:34:44Z</time>
      </trkpt>
      <trkpt lat="48.70844" lon="7.16123">
        <ele>324.8</ele>
        <time>2024-01-22T15:34:51Z</time>
      </trkpt>
      <trkpt lat="48.70844" lon="7.16123">
        <ele>324.8</ele>
        <time>2024-01-22T15:34:58Z</time>
      </trkpt>
      <trkpt lat="48.70844" lon="7.16123">
        <ele>324.8</ele>
        <time>2024-01-22T15:35:06Z</time>
      </trkpt>
      <trkpt lat="48.70844" lon="7.16123">
        <ele>324.8</ele>
        <time>2024-01-22T15:35:14Z</time>
      </trkpt>
      <trkpt lat="48.70844" lon="7.16123">
        <ele>324.8</ele>
        <time>2024-01-22T15:35:22Z</time>
      </trkpt>
      <trkpt lat="48.70844" lon="7.16123">
        <ele>324.8</ele>
        <time>2024-01-22T15:35:30Z</time>
      </trkpt>
      <trkpt lat="48.70844" lon="7.16123">
        <ele>324.8</ele>
        <time>2024-01-22T15:35:34Z</time>
      </trkpt>
      <trkpt lat="48.70839" lon="7.16121">
        <ele>325</ele>
        <time>2024-01-22T15:35:36Z</time>
      </trkpt>
      <trkpt lat="48.70826" lon="7.16121">
        <ele>325.6</ele>
        <time>2024-01-22T15:36:00Z</time>
      </trkpt>
      <trkpt lat="48.70806" lon="7.16115">
        <ele>326.5</ele>
        <time>2024-01-22T15:36:08Z</time>
      </trkpt>
      <trkpt lat="48.70785" lon="7.16112">
        <ele>327.4</ele>
        <time>2024-01-22T15:36:14Z</time>
      </trkpt>
      <trkpt lat="48.70766" lon="7.16111">
        <ele>328.4</ele>
        <time>2024-01-22T15:36:20Z</time>
      </trkpt>
      <trkpt lat="48.70745" lon="7.1611">
        <ele>329.4</ele>
        <time>2024-01-22T15:36:26Z</time>
      </trkpt>
      <trkpt lat="48.70724" lon="7.16107">
        <ele>330.5</ele>
        <time>2024-01-22T15:36:33Z</time>
      </trkpt>
      <trkpt lat="48.70703" lon="7.16105">
        <ele>331.5</ele>
        <time>2024-01-22T15:36:40Z</time>
      </trkpt>
      <trkpt lat="48.70683" lon="7.16105">
        <ele>332.6</ele>
        <time>2024-01-22T15:36:47Z</time>
      </trkpt>
      <trkpt lat="48.70663" lon="7.16104">
        <ele>333.7</ele>
        <time>2024-01-22T15:36:54Z</time>
      </trkpt>
      <trkpt lat="48.70643" lon="7.16106">
        <ele>334.7</ele>
        <time>2024-01-22T15:37:01Z</time>
      </trkpt>
      <trkpt lat="48.70623" lon="7.16109">
        <ele>335.7</ele>
        <time>2024-01-22T15:37:08Z</time>
      </trkpt>
      <trkpt lat="48.70603" lon="7.16111">
        <ele>336.7</ele>
        <time>2024-01-22T15:37:15Z</time>
      </trkpt>
      <trkpt lat="48.70582" lon="7.16113">
        <ele>337.6</ele>
        <time>2024-01-22T15:37:23Z</time>
      </trkpt>
      <trkpt lat="48.70563" lon="7.16111">
        <ele>338.2</ele>
        <time>2024-01-22T15:37:30Z</time>
      </trkpt>
      <trkpt lat="48.70544" lon="7.16106">
        <ele>338.7</ele>
        <time>2024-01-22T15:37:37Z</time>
      </trkpt>
      <trkpt lat="48.70526" lon="7.16102">
        <ele>338.9</ele>
        <time>2024-01-22T15:37:43Z</time>
      </trkpt>
      <trkpt lat="48.70507" lon="7.16097">
        <ele>338.9</ele>
        <time>2024-01-22T15:37:49Z</time>
      </trkpt>
      <trkpt lat="48.70487" lon="7.16089">
        <ele>339</ele>
        <time>2024-01-22T15:37:55Z</time>
      </trkpt>
      <trkpt lat="48.70469" lon="7.16082">
        <ele>339.4</ele>
        <time>2024-01-22T15:38:01Z</time>
      </trkpt>
      <trkpt lat="48.70452" lon="7.1607">
        <ele>339.9</ele>
        <time>2024-01-22T15:38:07Z</time>
      </trkpt>
      <trkpt lat="48.70434" lon="7.16061">
        <ele>340.6</ele>
        <time>2024-01-22T15:38:13Z</time>
      </trkpt>
      <trkpt lat="48.70415" lon="7.16056">
        <ele>341.5</ele>
        <time>2024-01-22T15:38:19Z</time>
      </trkpt>
      <trkpt lat="48.70396" lon="7.1605">
        <ele>342.6</ele>
        <time>2024-01-22T15:38:26Z</time>
      </trkpt>
      <trkpt lat="48.70378" lon="7.16047">
        <ele>343.7</ele>
        <time>2024-01-22T15:38:32Z</time>
      </trkpt>
      <trkpt lat="48.70358" lon="7.16046">
        <ele>345</ele>
        <time>2024-01-22T15:38:39Z</time>
      </trkpt>
      <trkpt lat="48.7034" lon="7.16044">
        <ele>346.3</ele>
        <time>2024-01-22T15:38:46Z</time>
      </trkpt>
      <trkpt lat="48.7032" lon="7.16038">
        <ele>347.6</ele>
        <time>2024-01-22T15:38:53Z</time>
      </trkpt>
      <trkpt lat="48.703" lon="7.16034">
        <ele>348.9</ele>
        <time>2024-01-22T15:39:00Z</time>
      </trkpt>
      <trkpt lat="48.70282" lon="7.16032">
        <ele>350</ele>
        <time>2024-01-22T15:39:06Z</time>
      </trkpt>
      <trkpt lat="48.70263" lon="7.16033">
        <ele>351</ele>
        <time>2024-01-22T15:39:12Z</time>
      </trkpt>
      <trkpt lat="48.70244" lon="7.16036">
        <ele>352.1</ele>
        <time>2024-01-22T15:39:18Z</time>
      </trkpt>
      <trkpt lat="48.70226" lon="7.16035">
        <ele>353.1</ele>
        <time>2024-01-22T15:39:24Z</time>
      </trkpt>
      <trkpt lat="48.70209" lon="7.16026">
        <ele>352.9</ele>
        <time>2024-01-22T15:39:31Z</time>
      </trkpt>
      <trkpt lat="48.70206" lon="7.15998">
        <ele>352.4</ele>
        <time>2024-01-22T15:39:37Z</time>
      </trkpt>
      <trkpt lat="48.70209" lon="7.15967">
        <ele>351.8</ele>
        <time>2024-01-22T15:39:43Z</time>
      </trkpt>
      <trkpt lat="48.70213" lon="7.15937">
        <ele>351.3</ele>
        <time>2024-01-22T15:39:49Z</time>
      </trkpt>
      <trkpt lat="48.70215" lon="7.15907">
        <ele>351.1</ele>
        <time>2024-01-22T15:39:55Z</time>
      </trkpt>
      <trkpt lat="48.70217" lon="7.15877">
        <ele>350.9</ele>
        <time>2024-01-22T15:40:01Z</time>
      </trkpt>
      <trkpt lat="48.70218" lon="7.15846">
        <ele>350.8</ele>
        <time>2024-01-22T15:40:07Z</time>
      </trkpt>
      <trkpt lat="48.70218" lon="7.15817">
        <ele>350.6</ele>
        <time>2024-01-22T15:40:13Z</time>
      </trkpt>
      <trkpt lat="48.7022" lon="7.15789">
        <ele>350.9</ele>
        <time>2024-01-22T15:40:19Z</time>
      </trkpt>
      <trkpt lat="48.70219" lon="7.1576">
        <ele>351.5</ele>
        <time>2024-01-22T15:40:25Z</time>
      </trkpt>
      <trkpt lat="48.70218" lon="7.15729">
        <ele>352.4</ele>
        <time>2024-01-22T15:40:32Z</time>
      </trkpt>
      <trkpt lat="48.70218" lon="7.15698">
        <ele>353.5</ele>
        <time>2024-01-22T15:40:39Z</time>
      </trkpt>
      <trkpt lat="48.70219" lon="7.1567">
        <ele>354.7</ele>
        <time>2024-01-22T15:40:46Z</time>
      </trkpt>
      <trkpt lat="48.70219" lon="7.15641">
        <ele>356</ele>
        <time>2024-01-22T15:40:54Z</time>
      </trkpt>
      <trkpt lat="48.70219" lon="7.15613">
        <ele>357.4</ele>
        <time>2024-01-22T15:41:01Z</time>
      </trkpt>
      <trkpt lat="48.70217" lon="7.15582">
        <ele>358.8</ele>
        <time>2024-01-22T15:41:08Z</time>
      </trkpt>
      <trkpt lat="48.70217" lon="7.15553">
        <ele>359.9</ele>
        <time>2024-01-22T15:41:14Z</time>
      </trkpt>
      <trkpt lat="48.70216" lon="7.15525">
        <ele>361</ele>
        <time>2024-01-22T15:41:20Z</time>
      </trkpt>
      <trkpt lat="48.70212" lon="7.15494">
        <ele>361.9</ele>
        <time>2024-01-22T15:41:27Z</time>
      </trkpt>
      <trkpt lat="48.70209" lon="7.15462">
        <ele>362.4</ele>
        <time>2024-01-22T15:41:34Z</time>
      </trkpt>
      <trkpt lat="48.70207" lon="7.15432">
        <ele>362.6</ele>
        <time>2024-01-22T15:41:41Z</time>
      </trkpt>
      <trkpt lat="48.70206" lon="7.15404">
        <ele>362.6</ele>
        <time>2024-01-22T15:41:47Z</time>
      </trkpt>
      <trkpt lat="48.70203" lon="7.15372">
        <ele>362.1</ele>
        <time>2024-01-22T15:41:53Z</time>
      </trkpt>
      <trkpt lat="48.70202" lon="7.15345">
        <ele>361.6</ele>
        <time>2024-01-22T15:41:58Z</time>
      </trkpt>
      <trkpt lat="48.70204" lon="7.15318">
        <ele>361.1</ele>
        <time>2024-01-22T15:42:03Z</time>
      </trkpt>
      <trkpt lat="48.70214" lon="7.15295">
        <ele>360.6</ele>
        <time>2024-01-22T15:42:08Z</time>
      </trkpt>
      <trkpt lat="48.70227" lon="7.15276">
        <ele>360.2</ele>
        <time>2024-01-22T15:42:13Z</time>
      </trkpt>
      <trkpt lat="48.70243" lon="7.15255">
        <ele>359.9</ele>
        <time>2024-01-22T15:42:19Z</time>
      </trkpt>
      <trkpt lat="48.7026" lon="7.15237">
        <ele>359.7</ele>
        <time>2024-01-22T15:42:26Z</time>
      </trkpt>
      <trkpt lat="48.7028" lon="7.15225">
        <ele>359.5</ele>
        <time>2024-01-22T15:42:32Z</time>
      </trkpt>
      <trkpt lat="48.70298" lon="7.1522">
        <ele>359.3</ele>
        <time>2024-01-22T15:42:37Z</time>
      </trkpt>
      <trkpt lat="48.70315" lon="7.15228">
        <ele>359.4</ele>
        <time>2024-01-22T15:42:43Z</time>
      </trkpt>
      <trkpt lat="48.70331" lon="7.15242">
        <ele>359.5</ele>
        <time>2024-01-22T15:42:50Z</time>
      </trkpt>
      <trkpt lat="48.70348" lon="7.15254">
        <ele>359.5</ele>
        <time>2024-01-22T15:42:55Z</time>
      </trkpt>
      <trkpt lat="48.70366" lon="7.15264">
        <ele>359.4</ele>
        <time>2024-01-22T15:43:00Z</time>
      </trkpt>
      <trkpt lat="48.70387" lon="7.15273">
        <ele>359.3</ele>
        <time>2024-01-22T15:43:06Z</time>
      </trkpt>
      <trkpt lat="48.70407" lon="7.15281">
        <ele>359.3</ele>
        <time>2024-01-22T15:43:12Z</time>
      </trkpt>
      <trkpt lat="48.70426" lon="7.15292">
        <ele>359.2</ele>
        <time>2024-01-22T15:43:18Z</time>
      </trkpt>
      <trkpt lat="48.70446" lon="7.15303">
        <ele>359.3</ele>
        <time>2024-01-22T15:43:24Z</time>
      </trkpt>
      <trkpt lat="48.70465" lon="7.15314">
        <ele>359.3</ele>
        <time>2024-01-22T15:43:30Z</time>
      </trkpt>
      <trkpt lat="48.70482" lon="7.15326">
        <ele>359.1</ele>
        <time>2024-01-22T15:43:35Z</time>
      </trkpt>
      <trkpt lat="48.70501" lon="7.15341">
        <ele>358.9</ele>
        <time>2024-01-22T15:43:41Z</time>
      </trkpt>
      <trkpt lat="48.70519" lon="7.15357">
        <ele>358.6</ele>
        <time>2024-01-22T15:43:47Z</time>
      </trkpt>
      <trkpt lat="48.70536" lon="7.15371">
        <ele>358.2</ele>
        <time>2024-01-22T15:43:53Z</time>
      </trkpt>
      <trkpt lat="48.70556" lon="7.15384">
        <ele>357.9</ele>
        <time>2024-01-22T15:43:59Z</time>
      </trkpt>
      <trkpt lat="48.70574" lon="7.15395">
        <ele>357.7</ele>
        <time>2024-01-22T15:44:05Z</time>
      </trkpt>
      <trkpt lat="48.70591" lon="7.15404">
        <ele>357.6</ele>
        <time>2024-01-22T15:44:10Z</time>
      </trkpt>
      <trkpt lat="48.70612" lon="7.15415">
        <ele>357.4</ele>
        <time>2024-01-22T15:44:16Z</time>
      </trkpt>
      <trkpt lat="48.70632" lon="7.15424">
        <ele>356.9</ele>
        <time>2024-01-22T15:44:22Z</time>
      </trkpt>
      <trkpt lat="48.70652" lon="7.15432">
        <ele>356.7</ele>
        <time>2024-01-22T15:44:28Z</time>
      </trkpt>
      <trkpt lat="48.70671" lon="7.15441">
        <ele>356.3</ele>
        <time>2024-01-22T15:44:34Z</time>
      </trkpt>
      <trkpt lat="48.70691" lon="7.15451">
        <ele>355.7</ele>
        <time>2024-01-22T15:44:40Z</time>
      </trkpt>
      <trkpt lat="48.70708" lon="7.15461">
        <ele>354.7</ele>
        <time>2024-01-22T15:44:46Z</time>
      </trkpt>
      <trkpt lat="48.70727" lon="7.15476">
        <ele>353.6</ele>
        <time>2024-01-22T15:44:52Z</time>
      </trkpt>
      <trkpt lat="48.70743" lon="7.15494">
        <ele>352.8</ele>
        <time>2024-01-22T15:44:58Z</time>
      </trkpt>
      <trkpt lat="48.7076" lon="7.15512">
        <ele>351.9</ele>
        <time>2024-01-22T15:45:05Z</time>
      </trkpt>
      <trkpt lat="48.70777" lon="7.15528">
        <ele>351.2</ele>
        <time>2024-01-22T15:45:11Z</time>
      </trkpt>
      <trkpt lat="48.70793" lon="7.15546">
        <ele>350.4</ele>
        <time>2024-01-22T15:45:17Z</time>
      </trkpt>
      <trkpt lat="48.70811" lon="7.15563">
        <ele>349.6</ele>
        <time>2024-01-22T15:45:23Z</time>
      </trkpt>
      <trkpt lat="48.70828" lon="7.1558">
        <ele>349</ele>
        <time>2024-01-22T15:45:29Z</time>
      </trkpt>
      <trkpt lat="48.70846" lon="7.15595">
        <ele>348.3</ele>
        <time>2024-01-22T15:45:35Z</time>
      </trkpt>
      <trkpt lat="48.70862" lon="7.1561">
        <ele>347.7</ele>
        <time>2024-01-22T15:45:41Z</time>
      </trkpt>
      <trkpt lat="48.7088" lon="7.15625">
        <ele>346.8</ele>
        <time>2024-01-22T15:45:47Z</time>
      </trkpt>
      <trkpt lat="48.70898" lon="7.15641">
        <ele>345.9</ele>
        <time>2024-01-22T15:45:53Z</time>
      </trkpt>
      <trkpt lat="48.70915" lon="7.15657">
        <ele>345</ele>
        <time>2024-01-22T15:45:59Z</time>
      </trkpt>
      <trkpt lat="48.70933" lon="7.15673">
        <ele>343.7</ele>
        <time>2024-01-22T15:46:06Z</time>
      </trkpt>
      <trkpt lat="48.70949" lon="7.15688">
        <ele>342.6</ele>
        <time>2024-01-22T15:46:12Z</time>
      </trkpt>
      <trkpt lat="48.70959" lon="7.15714">
        <ele>340.5</ele>
        <time>2024-01-22T15:46:18Z</time>
      </trkpt>
      <trkpt lat="48.70958" lon="7.15742">
        <ele>338</ele>
        <time>2024-01-22T15:46:23Z</time>
      </trkpt>
      <trkpt lat="48.70958" lon="7.15773">
        <ele>335.3</ele>
        <time>2024-01-22T15:46:29Z</time>
      </trkpt>
      <trkpt lat="48.70958" lon="7.158">
        <ele>332.7</ele>
        <time>2024-01-22T15:46:34Z</time>
      </trkpt>
      <trkpt lat="48.70958" lon="7.15828">
        <ele>330.6</ele>
        <time>2024-01-22T15:46:39Z</time>
      </trkpt>
      <trkpt lat="48.70956" lon="7.15857">
        <ele>328.7</ele>
        <time>2024-01-22T15:46:44Z</time>
      </trkpt>
      <trkpt lat="48.70954" lon="7.15884">
        <ele>326.9</ele>
        <time>2024-01-22T15:46:49Z</time>
      </trkpt>
      <trkpt lat="48.70954" lon="7.15916">
        <ele>324.9</ele>
        <time>2024-01-22T15:46:55Z</time>
      </trkpt>
      <trkpt lat="48.70956" lon="7.15945">
        <ele>322.7</ele>
        <time>2024-01-22T15:47:01Z</time>
      </trkpt>
      <trkpt lat="48.70959" lon="7.15975">
        <ele>320.5</ele>
        <time>2024-01-22T15:47:08Z</time>
      </trkpt>
      <trkpt lat="48.70968" lon="7.16001">
        <ele>318.8</ele>
        <time>2024-01-22T15:47:14Z</time>
      </trkpt>
      <trkpt lat="48.7098" lon="7.16025">
        <ele>317.6</ele>
        <time>2024-01-22T15:47:20Z</time>
      </trkpt>
      <trkpt lat="48.70993" lon="7.16049">
        <ele>316.8</ele>
        <time>2024-01-22T15:47:26Z</time>
      </trkpt>
      <trkpt lat="48.71006" lon="7.1607">
        <ele>316.7</ele>
        <time>2024-01-22T15:47:32Z</time>
      </trkpt>
      <trkpt lat="48.71015" lon="7.16096">
        <ele>316.7</ele>
        <time>2024-01-22T15:47:38Z</time>
      </trkpt>
      <trkpt lat="48.7103" lon="7.16116">
        <ele>316.1</ele>
        <time>2024-01-22T15:47:45Z</time>
      </trkpt>
      <trkpt lat="48.7105" lon="7.16111">
        <ele>316.2</ele>
        <time>2024-01-22T15:47:52Z</time>
      </trkpt>
      <trkpt lat="48.71066" lon="7.16097">
        <ele>316.2</ele>
        <time>2024-01-22T15:47:58Z</time>
      </trkpt>
      <trkpt lat="48.71086" lon="7.16092">
        <ele>316.2</ele>
        <time>2024-01-22T15:48:05Z</time>
      </trkpt>
      <trkpt lat="48.71104" lon="7.16101">
        <ele>315.9</ele>
        <time>2024-01-22T15:48:11Z</time>
      </trkpt>
      <trkpt lat="48.71123" lon="7.16113">
        <ele>315</ele>
        <time>2024-01-22T15:48:17Z</time>
      </trkpt>
      <trkpt lat="48.7114" lon="7.16123">
        <ele>314.5</ele>
        <time>2024-01-22T15:48:22Z</time>
      </trkpt>
      <trkpt lat="48.7116" lon="7.16119">
        <ele>315</ele>
        <time>2024-01-22T15:48:28Z</time>
      </trkpt>
      <trkpt lat="48.71178" lon="7.16112">
        <ele>316.3</ele>
        <time>2024-01-22T15:48:34Z</time>
      </trkpt>
      <trkpt lat="48.71197" lon="7.16122">
        <ele>317.3</ele>
        <time>2024-01-22T15:48:40Z</time>
      </trkpt>
      <trkpt lat="48.71216" lon="7.16136">
        <ele>317.5</ele>
        <time>2024-01-22T15:48:46Z</time>
      </trkpt>
      <trkpt lat="48.71234" lon="7.1615">
        <ele>317.5</ele>
        <time>2024-01-22T15:48:52Z</time>
      </trkpt>
      <trkpt lat="48.71252" lon="7.16164">
        <ele>317.3</ele>
        <time>2024-01-22T15:48:58Z</time>
      </trkpt>
      <trkpt lat="48.71269" lon="7.16177">
        <ele>317.2</ele>
        <time>2024-01-22T15:49:04Z</time>
      </trkpt>
      <trkpt lat="48.71286" lon="7.16189">
        <ele>317.5</ele>
        <time>2024-01-22T15:49:10Z</time>
      </trkpt>
      <trkpt lat="48.71304" lon="7.16188">
        <ele>318.2</ele>
        <time>2024-01-22T15:49:16Z</time>
      </trkpt>
      <trkpt lat="48.71315" lon="7.16182">
        <ele>321.6</ele>
        <time>2024-01-22T15:49:21Z</time>
      </trkpt>
      <trkpt lat="48.71314" lon="7.16177">
        <ele>321.8</ele>
        <time>2024-01-22T15:49:23Z</time>
      </trkpt>
      <trkpt lat="48.713" lon="7.16155">
        <ele>322.3</ele>
        <time>2024-01-22T15:49:30Z</time>
      </trkpt>
      <trkpt lat="48.713" lon="7.16126">
        <ele>323.6</ele>
        <time>2024-01-22T15:49:37Z</time>
      </trkpt>
      <trkpt lat="48.71312" lon="7.16102">
        <ele>324.9</ele>
        <time>2024-01-22T15:49:45Z</time>
      </trkpt>
      <trkpt lat="48.71326" lon="7.16083">
        <ele>325.4</ele>
        <time>2024-01-22T15:49:52Z</time>
      </trkpt>
      <trkpt lat="48.71331" lon="7.1608">
        <ele>325.5</ele>
        <time>2024-01-22T15:49:53Z</time>
      </trkpt>
      <trkpt lat="48.71333" lon="7.16082">
        <ele>325.6</ele>
        <time>2024-01-22T15:49:55Z</time>
      </trkpt>
      <trkpt lat="48.71348" lon="7.16104">
        <ele>325.5</ele>
        <time>2024-01-22T15:50:01Z</time>
      </trkpt>
      <trkpt lat="48.7136" lon="7.16124">
        <ele>325.1</ele>
        <time>2024-01-22T15:50:06Z</time>
      </trkpt>
      <trkpt lat="48.71372" lon="7.16145">
        <ele>324.5</ele>
        <time>2024-01-22T15:50:11Z</time>
      </trkpt>
      <trkpt lat="48.71383" lon="7.16168">
        <ele>323.3</ele>
        <time>2024-01-22T15:50:17Z</time>
      </trkpt>
      <trkpt lat="48.71394" lon="7.16193">
        <ele>321.3</ele>
        <time>2024-01-22T15:50:23Z</time>
      </trkpt>
      <trkpt lat="48.71407" lon="7.16218">
        <ele>318.6</ele>
        <time>2024-01-22T15:50:29Z</time>
      </trkpt>
      <trkpt lat="48.71418" lon="7.16245">
        <ele>316.2</ele>
        <time>2024-01-22T15:50:35Z</time>
      </trkpt>
      <trkpt lat="48.71419" lon="7.16276">
        <ele>312.2</ele>
        <time>2024-01-22T15:50:40Z</time>
      </trkpt>
      <trkpt lat="48.71428" lon="7.16301">
        <ele>310.9</ele>
        <time>2024-01-22T15:50:45Z</time>
      </trkpt>
      <trkpt lat="48.71448" lon="7.16304">
        <ele>310.3</ele>
        <time>2024-01-22T15:50:51Z</time>
      </trkpt>
      <trkpt lat="48.71467" lon="7.16304">
        <ele>309.9</ele>
        <time>2024-01-22T15:50:57Z</time>
      </trkpt>
      <trkpt lat="48.71488" lon="7.16307">
        <ele>309.3</ele>
        <time>2024-01-22T15:51:04Z</time>
      </trkpt>
      <trkpt lat="48.71506" lon="7.16312">
        <ele>308.7</ele>
        <time>2024-01-22T15:51:10Z</time>
      </trkpt>
      <trkpt lat="48.71527" lon="7.16314">
        <ele>308.1</ele>
        <time>2024-01-22T15:51:17Z</time>
      </trkpt>
      <trkpt lat="48.71546" lon="7.16316">
        <ele>307.7</ele>
        <time>2024-01-22T15:51:23Z</time>
      </trkpt>
      <trkpt lat="48.71566" lon="7.1632">
        <ele>307.3</ele>
        <time>2024-01-22T15:51:30Z</time>
      </trkpt>
      <trkpt lat="48.71586" lon="7.16321">
        <ele>306.6</ele>
        <time>2024-01-22T15:51:36Z</time>
      </trkpt>
      <trkpt lat="48.71606" lon="7.16324">
        <ele>305.6</ele>
        <time>2024-01-22T15:51:42Z</time>
      </trkpt>
      <trkpt lat="48.71625" lon="7.16329">
        <ele>305.1</ele>
        <time>2024-01-22T15:51:48Z</time>
      </trkpt>
      <trkpt lat="48.71644" lon="7.16336">
        <ele>304.5</ele>
        <time>2024-01-22T15:51:54Z</time>
      </trkpt>
      <trkpt lat="48.71665" lon="7.16335">
        <ele>303.7</ele>
        <time>2024-01-22T15:52:00Z</time>
      </trkpt>
      <trkpt lat="48.71685" lon="7.16332">
        <ele>302.7</ele>
        <time>2024-01-22T15:52:06Z</time>
      </trkpt>
      <trkpt lat="48.71707" lon="7.16329">
        <ele>302</ele>
        <time>2024-01-22T15:52:12Z</time>
      </trkpt>
      <trkpt lat="48.71726" lon="7.16325">
        <ele>301.7</ele>
        <time>2024-01-22T15:52:18Z</time>
      </trkpt>
      <trkpt lat="48.71746" lon="7.1632">
        <ele>301.2</ele>
        <time>2024-01-22T15:52:25Z</time>
      </trkpt>
      <trkpt lat="48.71763" lon="7.16304">
        <ele>301.3</ele>
        <time>2024-01-22T15:52:32Z</time>
      </trkpt>
      <trkpt lat="48.71781" lon="7.16295">
        <ele>301.5</ele>
        <time>2024-01-22T15:52:39Z</time>
      </trkpt>
      <trkpt lat="48.71799" lon="7.16298">
        <ele>300.5</ele>
        <time>2024-01-22T15:52:45Z</time>
      </trkpt>
      <trkpt lat="48.71817" lon="7.1631">
        <ele>299.7</ele>
        <time>2024-01-22T15:52:51Z</time>
      </trkpt>
      <trkpt lat="48.71834" lon="7.16323">
        <ele>298.8</ele>
        <time>2024-01-22T15:52:57Z</time>
      </trkpt>
      <trkpt lat="48.71852" lon="7.16338">
        <ele>298.3</ele>
        <time>2024-01-22T15:53:04Z</time>
      </trkpt>
      <trkpt lat="48.71868" lon="7.16354">
        <ele>298.3</ele>
        <time>2024-01-22T15:53:10Z</time>
      </trkpt>
      <trkpt lat="48.71881" lon="7.16374">
        <ele>298.4</ele>
        <time>2024-01-22T15:53:16Z</time>
      </trkpt>
      <trkpt lat="48.71896" lon="7.16396">
        <ele>298.4</ele>
        <time>2024-01-22T15:53:23Z</time>
      </trkpt>
      <trkpt lat="48.71912" lon="7.16412">
        <ele>298.5</ele>
        <time>2024-01-22T15:53:29Z</time>
      </trkpt>
      <trkpt lat="48.71931" lon="7.16425">
        <ele>298.7</ele>
        <time>2024-01-22T15:53:36Z</time>
      </trkpt>
      <trkpt lat="48.71948" lon="7.16435">
        <ele>299</ele>
        <time>2024-01-22T15:53:42Z</time>
      </trkpt>
      <trkpt lat="48.71964" lon="7.16449">
        <ele>298.1</ele>
        <time>2024-01-22T15:53:48Z</time>
      </trkpt>
      <trkpt lat="48.71975" lon="7.16475">
        <ele>297</ele>
        <time>2024-01-22T15:53:55Z</time>
      </trkpt>
      <trkpt lat="48.71989" lon="7.16498">
        <ele>295.9</ele>
        <time>2024-01-22T15:54:01Z</time>
      </trkpt>
      <trkpt lat="48.72002" lon="7.16523">
        <ele>294.8</ele>
        <time>2024-01-22T15:54:07Z</time>
      </trkpt>
      <trkpt lat="48.72016" lon="7.16546">
        <ele>293.9</ele>
        <time>2024-01-22T15:54:13Z</time>
      </trkpt>
      <trkpt lat="48.72029" lon="7.16564">
        <ele>293.1</ele>
        <time>2024-01-22T15:54:19Z</time>
      </trkpt>
      <trkpt lat="48.72041" lon="7.16586">
        <ele>292.4</ele>
        <time>2024-01-22T15:54:25Z</time>
      </trkpt>
      <trkpt lat="48.72051" lon="7.16611">
        <ele>291.5</ele>
        <time>2024-01-22T15:54:31Z</time>
      </trkpt>
      <trkpt lat="48.72061" lon="7.16636">
        <ele>290.6</ele>
        <time>2024-01-22T15:54:37Z</time>
      </trkpt>
      <trkpt lat="48.72074" lon="7.16657">
        <ele>289.7</ele>
        <time>2024-01-22T15:54:43Z</time>
      </trkpt>
      <trkpt lat="48.72085" lon="7.16679">
        <ele>288.8</ele>
        <time>2024-01-22T15:54:49Z</time>
      </trkpt>
      <trkpt lat="48.72096" lon="7.16701">
        <ele>287.9</ele>
        <time>2024-01-22T15:54:55Z</time>
      </trkpt>
      <trkpt lat="48.72107" lon="7.16723">
        <ele>287</ele>
        <time>2024-01-22T15:55:01Z</time>
      </trkpt>
      <trkpt lat="48.72122" lon="7.16744">
        <ele>286.2</ele>
        <time>2024-01-22T15:55:07Z</time>
      </trkpt>
      <trkpt lat="48.7213" lon="7.16759">
        <ele>286.4</ele>
        <time>2024-01-22T15:55:11Z</time>
      </trkpt>
      <trkpt lat="48.72122" lon="7.16764">
        <ele>289.7</ele>
        <time>2024-01-22T15:55:14Z</time>
      </trkpt>
      <trkpt lat="48.72104" lon="7.1675">
        <ele>290.4</ele>
        <time>2024-01-22T15:55:21Z</time>
      </trkpt>
      <trkpt lat="48.72087" lon="7.1674">
        <ele>291.3</ele>
        <time>2024-01-22T15:55:29Z</time>
      </trkpt>
      <trkpt lat="48.72069" lon="7.16727">
        <ele>291.9</ele>
        <time>2024-01-22T15:55:37Z</time>
      </trkpt>
      <trkpt lat="48.72056" lon="7.16709">
        <ele>291.9</ele>
        <time>2024-01-22T15:55:43Z</time>
      </trkpt>
      <trkpt lat="48.72041" lon="7.16686">
        <ele>292.1</ele>
        <time>2024-01-22T15:55:50Z</time>
      </trkpt>
      <trkpt lat="48.72027" lon="7.16669">
        <ele>292.3</ele>
        <time>2024-01-22T15:55:56Z</time>
      </trkpt>
      <trkpt lat="48.72011" lon="7.16653">
        <ele>292.6</ele>
        <time>2024-01-22T15:56:03Z</time>
      </trkpt>
      <trkpt lat="48.71996" lon="7.16636">
        <ele>292.9</ele>
        <time>2024-01-22T15:56:09Z</time>
      </trkpt>
      <trkpt lat="48.7198" lon="7.16615">
        <ele>293.5</ele>
        <time>2024-01-22T15:56:16Z</time>
      </trkpt>
      <trkpt lat="48.71964" lon="7.16597">
        <ele>294.1</ele>
        <time>2024-01-22T15:56:23Z</time>
      </trkpt>
      <trkpt lat="48.71949" lon="7.16576">
        <ele>294.7</ele>
        <time>2024-01-22T15:56:30Z</time>
      </trkpt>
      <trkpt lat="48.71934" lon="7.16559">
        <ele>295.2</ele>
        <time>2024-01-22T15:56:37Z</time>
      </trkpt>
      <trkpt lat="48.7192" lon="7.16546">
        <ele>295.6</ele>
        <time>2024-01-22T15:56:44Z</time>
      </trkpt>
      <trkpt lat="48.71907" lon="7.1657">
        <ele>298</ele>
        <time>2024-01-22T15:56:51Z</time>
      </trkpt>
      <trkpt lat="48.71901" lon="7.16596">
        <ele>299.3</ele>
        <time>2024-01-22T15:56:57Z</time>
      </trkpt>
      <trkpt lat="48.71892" lon="7.1662">
        <ele>300.7</ele>
        <time>2024-01-22T15:57:04Z</time>
      </trkpt>
      <trkpt lat="48.71883" lon="7.16644">
        <ele>302.5</ele>
        <time>2024-01-22T15:57:12Z</time>
      </trkpt>
      <trkpt lat="48.71874" lon="7.16668">
        <ele>304.5</ele>
        <time>2024-01-22T15:57:21Z</time>
      </trkpt>
      <trkpt lat="48.71864" lon="7.16693">
        <ele>306.8</ele>
        <time>2024-01-22T15:57:30Z</time>
      </trkpt>
      <trkpt lat="48.7186" lon="7.16699">
        <ele>307.3</ele>
        <time>2024-01-22T15:57:31Z</time>
      </trkpt>
      <trkpt lat="48.71851" lon="7.16722">
        <ele>309.3</ele>
        <time>2024-01-22T15:57:39Z</time>
      </trkpt>
      <trkpt lat="48.71844" lon="7.16747">
        <ele>311.2</ele>
        <time>2024-01-22T15:57:46Z</time>
      </trkpt>
      <trkpt lat="48.71832" lon="7.16768">
        <ele>312.7</ele>
        <time>2024-01-22T15:57:52Z</time>
      </trkpt>
      <trkpt lat="48.71821" lon="7.16792">
        <ele>314.3</ele>
        <time>2024-01-22T15:57:58Z</time>
      </trkpt>
      <trkpt lat="48.71809" lon="7.16816">
        <ele>316.2</ele>
        <time>2024-01-22T15:58:05Z</time>
      </trkpt>
      <trkpt lat="48.71797" lon="7.16836">
        <ele>317.9</ele>
        <time>2024-01-22T15:58:12Z</time>
      </trkpt>
      <trkpt lat="48.7178" lon="7.16832">
        <ele>318.9</ele>
        <time>2024-01-22T15:58:19Z</time>
      </trkpt>
      <trkpt lat="48.71762" lon="7.16818">
        <ele>319.7</ele>
        <time>2024-01-22T15:58:26Z</time>
      </trkpt>
      <trkpt lat="48.71745" lon="7.16808">
        <ele>320.3</ele>
        <time>2024-01-22T15:58:33Z</time>
      </trkpt>
      <trkpt lat="48.71728" lon="7.16792">
        <ele>320.9</ele>
        <time>2024-01-22T15:58:40Z</time>
      </trkpt>
      <trkpt lat="48.71709" lon="7.16779">
        <ele>321.5</ele>
        <time>2024-01-22T15:58:47Z</time>
      </trkpt>
      <trkpt lat="48.7169" lon="7.16771">
        <ele>322</ele>
        <time>2024-01-22T15:58:54Z</time>
      </trkpt>
      <trkpt lat="48.71671" lon="7.16763">
        <ele>322.6</ele>
        <time>2024-01-22T15:59:01Z</time>
      </trkpt>
      <trkpt lat="48.71652" lon="7.16752">
        <ele>323.1</ele>
        <time>2024-01-22T15:59:08Z</time>
      </trkpt>
      <trkpt lat="48.71633" lon="7.16742">
        <ele>323.6</ele>
        <time>2024-01-22T15:59:15Z</time>
      </trkpt>
      <trkpt lat="48.71614" lon="7.16734">
        <ele>324.4</ele>
        <time>2024-01-22T15:59:22Z</time>
      </trkpt>
      <trkpt lat="48.71594" lon="7.16727">
        <ele>325.2</ele>
        <time>2024-01-22T15:59:29Z</time>
      </trkpt>
      <trkpt lat="48.71573" lon="7.16726">
        <ele>325.6</ele>
        <time>2024-01-22T15:59:36Z</time>
      </trkpt>
      <trkpt lat="48.71554" lon="7.16724">
        <ele>326.3</ele>
        <time>2024-01-22T15:59:42Z</time>
      </trkpt>
      <trkpt lat="48.71535" lon="7.16718">
        <ele>327</ele>
        <time>2024-01-22T15:59:48Z</time>
      </trkpt>
      <trkpt lat="48.71515" lon="7.16712">
        <ele>327.2</ele>
        <time>2024-01-22T15:59:55Z</time>
      </trkpt>
      <trkpt lat="48.715" lon="7.167">
        <ele>327.6</ele>
        <time>2024-01-22T16:00:01Z</time>
      </trkpt>
      <trkpt lat="48.71482" lon="7.16693">
        <ele>328.1</ele>
        <time>2024-01-22T16:00:07Z</time>
      </trkpt>
      <trkpt lat="48.71463" lon="7.16687">
        <ele>328.7</ele>
        <time>2024-01-22T16:00:13Z</time>
      </trkpt>
      <trkpt lat="48.71443" lon="7.16687">
        <ele>329.3</ele>
        <time>2024-01-22T16:00:20Z</time>
      </trkpt>
      <trkpt lat="48.71423" lon="7.16687">
        <ele>329.8</ele>
        <time>2024-01-22T16:00:27Z</time>
      </trkpt>
      <trkpt lat="48.71404" lon="7.16685">
        <ele>330.3</ele>
        <time>2024-01-22T16:00:34Z</time>
      </trkpt>
      <trkpt lat="48.71384" lon="7.16683">
        <ele>330.3</ele>
        <time>2024-01-22T16:00:41Z</time>
      </trkpt>
      <trkpt lat="48.71374" lon="7.16689">
        <ele>330.1</ele>
        <time>2024-01-22T16:00:45Z</time>
      </trkpt>
      <trkpt lat="48.71362" lon="7.16714">
        <ele>330.8</ele>
        <time>2024-01-22T16:00:51Z</time>
      </trkpt>
      <trkpt lat="48.71351" lon="7.16738">
        <ele>331.7</ele>
        <time>2024-01-22T16:00:57Z</time>
      </trkpt>
      <trkpt lat="48.71339" lon="7.16761">
        <ele>332.8</ele>
        <time>2024-01-22T16:01:03Z</time>
      </trkpt>
      <trkpt lat="48.71325" lon="7.16783">
        <ele>334.1</ele>
        <time>2024-01-22T16:01:10Z</time>
      </trkpt>
      <trkpt lat="48.71312" lon="7.16806">
        <ele>335.1</ele>
        <time>2024-01-22T16:01:17Z</time>
      </trkpt>
      <trkpt lat="48.713" lon="7.1683">
        <ele>336</ele>
        <time>2024-01-22T16:01:24Z</time>
      </trkpt>
      <trkpt lat="48.71287" lon="7.16854">
        <ele>336.6</ele>
        <time>2024-01-22T16:01:31Z</time>
      </trkpt>
      <trkpt lat="48.71273" lon="7.16874">
        <ele>337</ele>
        <time>2024-01-22T16:01:37Z</time>
      </trkpt>
      <trkpt lat="48.71258" lon="7.16891">
        <ele>337.6</ele>
        <time>2024-01-22T16:01:44Z</time>
      </trkpt>
      <trkpt lat="48.71244" lon="7.16911">
        <ele>338.3</ele>
        <time>2024-01-22T16:01:51Z</time>
      </trkpt>
      <trkpt lat="48.71227" lon="7.16923">
        <ele>339</ele>
        <time>2024-01-22T16:01:58Z</time>
      </trkpt>
      <trkpt lat="48.71209" lon="7.16927">
        <ele>340</ele>
        <time>2024-01-22T16:02:05Z</time>
      </trkpt>
      <trkpt lat="48.71191" lon="7.16929">
        <ele>341.1</ele>
        <time>2024-01-22T16:02:12Z</time>
      </trkpt>
      <trkpt lat="48.71172" lon="7.16928">
        <ele>341.9</ele>
        <time>2024-01-22T16:02:19Z</time>
      </trkpt>
      <trkpt lat="48.71154" lon="7.16929">
        <ele>342.5</ele>
        <time>2024-01-22T16:02:27Z</time>
      </trkpt>
      <trkpt lat="48.71136" lon="7.16935">
        <ele>343.2</ele>
        <time>2024-01-22T16:02:34Z</time>
      </trkpt>
      <trkpt lat="48.71116" lon="7.16935">
        <ele>344.1</ele>
        <time>2024-01-22T16:02:41Z</time>
      </trkpt>
      <trkpt lat="48.71096" lon="7.16935">
        <ele>344.9</ele>
        <time>2024-01-22T16:02:49Z</time>
      </trkpt>
      <trkpt lat="48.71078" lon="7.1695">
        <ele>345.5</ele>
        <time>2024-01-22T16:02:56Z</time>
      </trkpt>
      <trkpt lat="48.71064" lon="7.16968">
        <ele>346.2</ele>
        <time>2024-01-22T16:03:02Z</time>
      </trkpt>
      <trkpt lat="48.71049" lon="7.16984">
        <ele>347</ele>
        <time>2024-01-22T16:03:08Z</time>
      </trkpt>
      <trkpt lat="48.71035" lon="7.17003">
        <ele>347.8</ele>
        <time>2024-01-22T16:03:14Z</time>
      </trkpt>
      <trkpt lat="48.7102" lon="7.17021">
        <ele>348.6</ele>
        <time>2024-01-22T16:03:20Z</time>
      </trkpt>
      <trkpt lat="48.71004" lon="7.17036">
        <ele>350.5</ele>
        <time>2024-01-22T16:03:27Z</time>
      </trkpt>
      <trkpt lat="48.71001" lon="7.17031">
        <ele>350.4</ele>
        <time>2024-01-22T16:03:29Z</time>
      </trkpt>
      <trkpt lat="48.70994" lon="7.17005">
        <ele>350.1</ele>
        <time>2024-01-22T16:03:36Z</time>
      </trkpt>
      <trkpt lat="48.70989" lon="7.16978">
        <ele>349.7</ele>
        <time>2024-01-22T16:03:42Z</time>
      </trkpt>
      <trkpt lat="48.70987" lon="7.1695">
        <ele>349.1</ele>
        <time>2024-01-22T16:03:48Z</time>
      </trkpt>
      <trkpt lat="48.70986" lon="7.16923">
        <ele>348.4</ele>
        <time>2024-01-22T16:03:54Z</time>
      </trkpt>
      <trkpt lat="48.70982" lon="7.16892">
        <ele>347.7</ele>
        <time>2024-01-22T16:04:01Z</time>
      </trkpt>
      <trkpt lat="48.70976" lon="7.16864">
        <ele>347.4</ele>
        <time>2024-01-22T16:04:08Z</time>
      </trkpt>
      <trkpt lat="48.70966" lon="7.16839">
        <ele>346.9</ele>
        <time>2024-01-22T16:04:16Z</time>
      </trkpt>
      <trkpt lat="48.70958" lon="7.16812">
        <ele>346.5</ele>
        <time>2024-01-22T16:04:23Z</time>
      </trkpt>
      <trkpt lat="48.70959" lon="7.16782">
        <ele>346</ele>
        <time>2024-01-22T16:04:29Z</time>
      </trkpt>
      <trkpt lat="48.70954" lon="7.16755">
        <ele>345.6</ele>
        <time>2024-01-22T16:04:35Z</time>
      </trkpt>
      <trkpt lat="48.70945" lon="7.16731">
        <ele>345.4</ele>
        <time>2024-01-22T16:04:41Z</time>
      </trkpt>
      <trkpt lat="48.70932" lon="7.16712">
        <ele>345.3</ele>
        <time>2024-01-22T16:04:47Z</time>
      </trkpt>
      <trkpt lat="48.70915" lon="7.16695">
        <ele>345.3</ele>
        <time>2024-01-22T16:04:53Z</time>
      </trkpt>
      <trkpt lat="48.709" lon="7.16676">
        <ele>345.3</ele>
        <time>2024-01-22T16:04:59Z</time>
      </trkpt>
      <trkpt lat="48.70886" lon="7.16656">
        <ele>345.3</ele>
        <time>2024-01-22T16:05:05Z</time>
      </trkpt>
      <trkpt lat="48.70872" lon="7.16638">
        <ele>345.3</ele>
        <time>2024-01-22T16:05:11Z</time>
      </trkpt>
      <trkpt lat="48.70858" lon="7.16619">
        <ele>345.3</ele>
        <time>2024-01-22T16:05:17Z</time>
      </trkpt>
      <trkpt lat="48.70842" lon="7.166">
        <ele>345.4</ele>
        <time>2024-01-22T16:05:24Z</time>
      </trkpt>
      <trkpt lat="48.70826" lon="7.16585">
        <ele>345.5</ele>
        <time>2024-01-22T16:05:30Z</time>
      </trkpt>
      <trkpt lat="48.7081" lon="7.16572">
        <ele>345.5</ele>
        <time>2024-01-22T16:05:36Z</time>
      </trkpt>
      <trkpt lat="48.70791" lon="7.16559">
        <ele>345.7</ele>
        <time>2024-01-22T16:05:43Z</time>
      </trkpt>
      <trkpt lat="48.70774" lon="7.16545">
        <ele>346</ele>
        <time>2024-01-22T16:05:50Z</time>
      </trkpt>
      <trkpt lat="48.70758" lon="7.16531">
        <ele>346.3</ele>
        <time>2024-01-22T16:05:56Z</time>
      </trkpt>
      <trkpt lat="48.7074" lon="7.16515">
        <ele>346.7</ele>
        <time>2024-01-22T16:06:03Z</time>
      </trkpt>
      <trkpt lat="48.70723" lon="7.16496">
        <ele>347</ele>
        <time>2024-01-22T16:06:10Z</time>
      </trkpt>
      <trkpt lat="48.70708" lon="7.16482">
        <ele>347.3</ele>
        <time>2024-01-22T16:06:16Z</time>
      </trkpt>
      <trkpt lat="48.70692" lon="7.16466">
        <ele>347.5</ele>
        <time>2024-01-22T16:06:22Z</time>
      </trkpt>
      <trkpt lat="48.70678" lon="7.16448">
        <ele>347.4</ele>
        <time>2024-01-22T16:06:28Z</time>
      </trkpt>
      <trkpt lat="48.70662" lon="7.16428">
        <ele>347.1</ele>
        <time>2024-01-22T16:06:35Z</time>
      </trkpt>
      <trkpt lat="48.70661" lon="7.16424">
        <ele>347.1</ele>
        <time>2024-01-22T16:06:36Z</time>
      </trkpt>
      <trkpt lat="48.70669" lon="7.16399">
        <ele>345.8</ele>
        <time>2024-01-22T16:06:42Z</time>
      </trkpt>
      <trkpt lat="48.70682" lon="7.16375">
        <ele>344.3</ele>
        <time>2024-01-22T16:06:48Z</time>
      </trkpt>
      <trkpt lat="48.70694" lon="7.16351">
        <ele>342.8</ele>
        <time>2024-01-22T16:06:53Z</time>
      </trkpt>
      <trkpt lat="48.70706" lon="7.16328">
        <ele>341.2</ele>
        <time>2024-01-22T16:06:58Z</time>
      </trkpt>
      <trkpt lat="48.70718" lon="7.16305">
        <ele>339.7</ele>
        <time>2024-01-22T16:07:03Z</time>
      </trkpt>
      <trkpt lat="48.70732" lon="7.16283">
        <ele>338.1</ele>
        <time>2024-01-22T16:07:08Z</time>
      </trkpt>
      <trkpt lat="48.70744" lon="7.16261">
        <ele>336.6</ele>
        <time>2024-01-22T16:07:13Z</time>
      </trkpt>
      <trkpt lat="48.70757" lon="7.16242">
        <ele>334.9</ele>
        <time>2024-01-22T16:07:18Z</time>
      </trkpt>
      <trkpt lat="48.7077" lon="7.16219">
        <ele>333.1</ele>
        <time>2024-01-22T16:07:23Z</time>
      </trkpt>
      <trkpt lat="48.70784" lon="7.16201">
        <ele>331.6</ele>
        <time>2024-01-22T16:07:28Z</time>
      </trkpt>
      <trkpt lat="48.70799" lon="7.1618">
        <ele>329.9</ele>
        <time>2024-01-22T16:07:33Z</time>
      </trkpt>
      <trkpt lat="48.70814" lon="7.16159">
        <ele>328.2</ele>
        <time>2024-01-22T16:07:38Z</time>
      </trkpt>
      <trkpt lat="48.70827" lon="7.16137">
        <ele>326.3</ele>
        <time>2024-01-22T16:07:43Z</time>
      </trkpt>
      <trkpt lat="48.70844" lon="7.16128">
        <ele>324.8</ele>
        <time>2024-01-22T16:07:48Z</time>
      </trkpt>
      <trkpt lat="48.70863" lon="7.1613">
        <ele>324</ele>
        <time>2024-01-22T16:07:53Z</time>
      </trkpt>
      <trkpt lat="48.70881" lon="7.16134">
        <ele>323.3</ele>
        <time>2024-01-22T16:07:58Z</time>
      </trkpt>
      <trkpt lat="48.709" lon="7.16137">
        <ele>322.6</ele>
        <time>2024-01-22T16:08:03Z</time>
      </trkpt>
      <trkpt lat="48.70918" lon="7.1614">
        <ele>322</ele>
        <time>2024-01-22T16:08:08Z</time>
      </trkpt>
      <trkpt lat="48.70937" lon="7.16145">
        <ele>321.3</ele>
        <time>2024-01-22T16:08:13Z</time>
      </trkpt>
      <trkpt lat="48.70955" lon="7.1615">
        <ele>320.7</ele>
        <time>2024-01-22T16:08:18Z</time>
      </trkpt>
      <trkpt lat="48.70974" lon="7.16155">
        <ele>320</ele>
        <time>2024-01-22T16:08:23Z</time>
      </trkpt>
      <trkpt lat="48.70995" lon="7.16161">
        <ele>319.3</ele>
        <time>2024-01-22T16:08:28Z</time>
      </trkpt>
      <trkpt lat="48.71016" lon="7.16167">
        <ele>319</ele>
        <time>2024-01-22T16:08:33Z</time>
      </trkpt>
      <trkpt lat="48.71036" lon="7.1617">
        <ele>318.9</ele>
        <time>2024-01-22T16:08:38Z</time>
      </trkpt>
      <trkpt lat="48.71056" lon="7.16178">
        <ele>318.8</ele>
        <time>2024-01-22T16:08:43Z</time>
      </trkpt>
      <trkpt lat="48.71076" lon="7.16189">
        <ele>318.7</ele>
        <time>2024-01-22T16:08:48Z</time>
      </trkpt>
      <trkpt lat="48.71087" lon="7.16199">
        <ele>318.6</ele>
        <time>2024-01-22T16:08:51Z</time>
      </trkpt>
      <trkpt lat="48.711" lon="7.16219">
        <ele>318.5</ele>
        <time>2024-01-22T16:08:56Z</time>
      </trkpt>
      <trkpt lat="48.71105" lon="7.16228">
        <ele>318.5</ele>
        <time>2024-01-22T16:08:58Z</time>
      </trkpt>
      <trkpt lat="48.71119" lon="7.16246">
        <ele>318.3</ele>
        <time>2024-01-22T16:09:03Z</time>
      </trkpt>
      <trkpt lat="48.71133" lon="7.16266">
        <ele>317.9</ele>
        <time>2024-01-22T16:09:09Z</time>
      </trkpt>
      <trkpt lat="48.71149" lon="7.16283">
        <ele>317.3</ele>
        <time>2024-01-22T16:09:16Z</time>
      </trkpt>
      <trkpt lat="48.7115" lon="7.16285">
        <ele>317.2</ele>
        <time>2024-01-22T16:09:17Z</time>
      </trkpt>
    </trkseg>
  </trk>
</gpx>